Time;durP1;ratioP1;P1;durP2;ratioP2;P2;SDS_P1;SDS_P2;PMS_P1;PMS_P2;Temp;Humidity;BMP_temperature;BMP_pressure;BME280_temperature;BME280_humidity;BME280_pressure;Samples;Min_cycle;Max_cycle;Signal;HPM_P1;HPM_P2
2023/04/09 00:00:13;;;;;;;22.73;17.05;;;;;;;4.77;100.00;62489.34;4930308;29;20198;-79
2023/04/09 00:02:40;;;;;;;26.60;16.65;;;;;;;4.74;100.00;62484.25;4930186;29;20229;-80
2023/04/09 00:05:08;;;;;;;23.75;16.77;;;;;;;4.81;100.00;62490.44;4930633;29;20236;-78
2023/04/09 00:07:37;;;;;;;22.83;16.83;;;;;;;4.82;100.00;62493.97;4923432;29;20226;-78
2023/04/09 00:10:04;;;;;;;26.60;17.75;;;;;;;4.79;100.00;62488.38;4910469;29;20203;-80
2023/04/09 00:12:31;;;;;;;25.55;17.83;;;;;;;4.89;100.00;62504.25;4911753;29;20244;-78
2023/04/09 00:14:58;;;;;;;22.85;16.13;;;;;;;4.92;100.00;62507.31;4910967;29;20503;-79
2023/04/09 00:17:25;;;;;;;21.55;15.25;;;;;;;5.04;100.00;62514.63;4924481;29;20283;-78
2023/04/09 00:19:52;;;;;;;21.88;15.90;;;;;;;5.11;100.00;62528.91;4931046;29;20208;-80
2023/04/09 00:22:19;;;;;;;23.40;15.98;;;;;;;5.17;100.00;62530.03;4930523;29;20217;-79
2023/04/09 00:24:48;;;;;;;22.52;16.27;;;;;;;5.04;100.00;62519.19;4930601;29;20210;-79
2023/04/09 00:27:15;;;;;;;24.77;15.77;;;;;;;5.03;100.00;62515.63;4930524;29;20233;-80
2023/04/09 00:29:42;;;;;;;24.55;15.95;;;;;;;5.16;100.00;62529.00;4929943;29;20202;-80
2023/04/09 00:32:09;;;;;;;27.95;17.25;;;;;;;5.21;100.00;62539.22;4929632;29;20244;-78
2023/04/09 00:34:37;;;;;;;22.55;16.33;;;;;;;5.20;100.00;62536.16;4921294;29;20229;-78
2023/04/09 00:37:04;;;;;;;22.73;16.90;;;;;;;5.08;100.00;62515.72;4910183;29;20224;-77
2023/04/09 00:39:31;;;;;;;26.15;16.42;;;;;;;5.13;100.00;62526.44;4911377;29;20203;-76
2023/04/09 00:42:01;;;;;;;26.70;17.70;;;;;;;5.06;100.00;62519.22;4914224;29;20226;-78
2023/04/09 00:44:28;;;;;;;25.85;17.48;;;;;;;5.22;100.00;62535.19;4927440;29;20552;-77
2023/04/09 00:46:56;;;;;;;24.90;17.02;;;;;;;5.20;100.00;62533.63;4929146;29;20222;-80
2023/04/09 00:49:25;;;;;;;24.27;15.80;;;;;;;5.21;100.00;62536.69;4929293;29;20201;-80
2023/04/09 00:51:53;;;;;;;21.52;16.00;;;;;;;5.16;100.00;62529.50;4928478;29;20289;-78
2023/04/09 00:54:20;;;;;;;27.27;17.23;;;;;;;5.18;100.00;62533.56;4927424;29;20518;-79
2023/04/09 00:56:47;;;;;;;23.02;16.58;;;;;;;5.16;100.00;62529.00;4930584;29;20315;-80
2023/04/09 00:59:15;;;;;;;24.00;16.10;;;;;;;5.32;100.00;62548.53;4928258;29;20583;-79
2023/04/09 01:01:42;;;;;;;22.13;16.05;;;;;;;5.37;100.00;62548.09;4928304;29;20226;-79
2023/04/09 01:04:09;;;;;;;21.27;15.68;;;;;;;5.33;100.00;62544.00;4929037;29;20194;-79
2023/04/09 01:06:43;;;;;;;19.90;15.00;;;;;;;5.23;100.00;62536.72;4928977;29;20225;-78
2023/04/09 01:09:18;;;;;;;23.75;17.00;;;;;;;5.19;100.00;62532.63;4924141;29;20216;-80
2023/04/09 01:11:56;;;;;;;23.70;15.77;;;;;;;5.06;100.00;62518.69;4929760;29;20229;-79
2023/04/09 01:14:34;;;;;;;19.75;15.70;;;;;;;4.98;100.00;62511.00;4929749;29;20485;-79
2023/04/09 01:17:06;;;;;;;22.58;15.25;;;;;;;4.94;100.00;62504.34;4931218;29;20224;-79
2023/04/09 01:19:44;;;;;;;20.70;15.52;;;;;;;4.93;100.00;62505.31;4929101;29;20202;-78
2023/04/09 01:22:29;;;;;;;21.98;15.10;;;;;;;4.87;100.00;62494.59;4929261;29;20247;-78
2023/04/09 01:25:09;;;;;;;21.52;15.52;;;;;;;4.86;100.00;62498.63;4929147;29;20190;-79
2023/04/09 01:27:45;;;;;;;21.73;14.75;;;;;;;4.74;100.00;62486.28;4927538;29;20237;-78
2023/04/09 01:30:16;;;;;;;23.88;15.35;;;;;;;4.79;100.00;62488.38;4910617;29;20382;-78
2023/04/09 01:32:43;;;;;;;22.33;15.57;;;;;;;4.81;100.00;62492.97;4911047;29;20543;-78
2023/04/09 01:35:11;;;;;;;20.10;14.98;;;;;;;4.91;100.00;62498.72;4911333;29;20218;-80
2023/04/09 01:37:40;;;;;;;23.38;17.13;;;;;;;4.87;100.00;62491.59;4922779;29;20251;-79
2023/04/09 01:40:08;;;;;;;24.40;16.33;;;;;;;4.83;100.00;62498.06;4929306;29;20335;-79
2023/04/09 01:42:37;;;;;;;22.35;15.40;;;;;;;4.89;100.00;62504.25;4929406;29;20222;-80
2023/04/09 01:45:06;;;;;;;25.17;15.50;;;;;;;4.84;100.00;62501.09;4932221;29;20206;-79
2023/04/09 01:47:35;;;;;;;20.75;14.27;;;;;;;4.65;100.00;62477.00;4919475;29;20223;-79
2023/04/09 01:50:03;;;;;;;19.75;14.45;;;;;;;4.60;100.00;62469.88;4932311;29;20228;-79
2023/04/09 01:52:30;;;;;;;19.88;13.63;;;;;;;4.62;100.00;62471.41;4933740;29;20237;-79
2023/04/09 01:54:57;;;;;;;17.48;13.13;;;;;;;4.59;100.00;62473.38;4933704;29;20232;-79
2023/04/09 01:57:24;;;;;;;21.48;14.10;;;;;;;4.40;100.00;62453.81;4928398;29;20253;-79
2023/04/09 01:59:52;;;;;;;21.05;14.23;;;;;;;4.53;100.00;62459.63;4933182;29;20208;-78
2023/04/09 02:02:28;;;;;;;18.92;13.98;;;;;;;4.47;100.00;62461.00;4932937;29;20546;-79
2023/04/09 02:05:02;;;;;;;20.35;14.43;;;;;;;4.45;100.00;62459.44;4927538;29;20210;-79
2023/04/09 02:07:35;;;;;;;21.60;14.65;;;;;;;4.37;100.00;62448.69;4931326;29;20229;-78
2023/04/09 02:10:05;;;;;;;20.25;14.07;;;;;;;4.33;100.00;62446.59;4933938;29;20202;-79
2023/04/09 02:12:36;;;;;;;20.48;13.23;;;;;;;4.27;100.00;62440.94;4933774;29;20294;-80
2023/04/09 02:15:04;;;;;;;17.55;12.40;;;;;;;4.27;100.00;62435.38;4928141;29;20287;-79
2023/04/09 02:17:31;;;;;;;18.02;12.75;;;;;;;4.21;100.00;62432.22;4932921;29;20230;-79
2023/04/09 02:20:00;;;;;;;17.70;13.25;;;;;;;4.20;100.00;62431.22;4932330;29;20195;-79
2023/04/09 02:22:27;;;;;;;20.67;13.27;;;;;;;4.02;100.00;62409.66;4929827;29;20219;-80
2023/04/09 02:24:54;;;;;;;20.00;13.35;;;;;;;3.89;100.00;62399.31;4916025;29;20430;-81
2023/04/09 02:27:22;;;;;;;19.52;13.27;;;;;;;3.98;100.00;62410.59;4934879;29;20281;-80
2023/04/09 02:29:49;;;;;;;21.90;13.57;;;;;;;3.99;100.00;62409.59;4933016;29;20206;-82
2023/04/09 02:32:16;;;;;;;23.83;14.48;;;;;;;3.99;100.00;62414.63;4932073;29;20553;-80
2023/04/09 02:34:44;;;;;;;21.80;14.38;;;;;;;3.99;100.00;62414.13;4931720;29;20233;-79
2023/04/09 02:37:12;;;;;;;18.40;13.50;;;;;;;4.00;100.00;62410.66;4932369;29;20221;-79
2023/04/09 02:39:40;;;;;;;19.23;13.45;;;;;;;3.96;100.00;62404.00;4930694;29;20245;-79
2023/04/09 02:42:07;;;;;;;20.15;12.93;;;;;;;3.94;100.00;62401.94;4931670;29;20226;-80
2023/04/09 02:44:34;;;;;;;18.05;13.48;;;;;;;3.93;100.00;62405.44;4934212;29;20233;-80
2023/04/09 02:47:02;;;;;;;17.17;12.68;;;;;;;3.94;100.00;62401.94;4933024;29;20249;-80
2023/04/09 02:49:29;;;;;;;20.25;13.32;;;;;;;3.82;100.00;62396.63;4933679;29;20206;-79
2023/04/09 02:51:56;;;;;;;14.80;11.82;;;;;;;3.84;100.00;62396.69;4931813;29;20218;-81
2023/04/09 02:54:24;;;;;;;17.70;12.55;;;;;;;3.75;100.00;62382.41;4932445;29;20229;-80
2023/04/09 02:56:51;;;;;;;18.40;13.48;;;;;;;3.81;100.00;62393.63;4930307;29;20273;-79
2023/04/09 02:59:18;;;;;;;17.02;11.95;;;;;;;3.85;100.00;62395.19;4923102;29;20210;-79
2023/04/09 03:01:45;;;;;;;17.98;13.18;;;;;;;3.86;100.00;62395.72;4930934;29;20226;-80
2023/04/09 03:04:12;;;;;;;17.50;12.63;;;;;;;3.81;100.00;62391.09;4915404;29;20218;-80
2023/04/09 03:06:39;;;;;;;20.08;12.25;;;;;;;3.76;100.00;62385.97;4929517;29;20230;-79
2023/04/09 03:09:06;;;;;;;14.45;12.05;;;;;;;3.65;100.00;62374.13;4930612;29;20202;-78
2023/04/09 03:11:34;;;;;;;18.27;11.88;;;;;;;3.81;100.00;62390.56;4931300;29;20375;-80
2023/04/09 03:14:01;;;;;;;19.75;12.70;;;;;;;3.67;100.00;62376.69;4932006;29;20226;-79
2023/04/09 03:16:29;;;;;;;18.98;12.35;;;;;;;3.47;100.00;62356.63;4927038;29;20205;-80
2023/04/09 03:18:56;;;;;;;14.95;11.25;;;;;;;3.25;100.00;62334.03;4917973;29;20254;-78
2023/04/09 03:21:23;;;;;;;20.02;12.25;;;;;;;3.41;100.00;62350.47;4913637;29;20206;-79
2023/04/09 03:23:50;;;;;;;16.05;12.43;;;;;;;3.42;100.00;62351.50;4920984;29;20247;-80
2023/04/09 03:26:17;;;;;;;15.65;12.40;;;;;;;3.33;100.00;62344.75;4931294;29;20230;-79
2023/04/09 03:28:46;;;;;;;18.75;13.32;;;;;;;3.43;100.00;62354.53;4931130;29;20198;-79
2023/04/09 03:31:13;;;;;;;18.27;12.43;;;;;;;3.42;100.00;62354.00;4931546;29;20529;-78
2023/04/09 03:33:40;;;;;;;19.10;13.48;;;;;;;3.40;100.00;62346.91;4923284;29;20447;-79
2023/04/09 03:36:07;;;;;;;18.23;13.18;;;;;;;3.43;100.00;62355.03;4916107;29;20211;-80
2023/04/09 03:38:35;;;;;;;18.67;12.95;;;;;;;3.55;100.00;62364.84;4914277;29;20254;-81
2023/04/09 03:41:02;;;;;;;18.85;12.65;;;;;;;3.60;100.00;62368.97;4911271;29;20207;-80
2023/04/09 03:43:30;;;;;;;19.35;13.90;;;;;;;3.62;100.00;62371.03;4915041;29;20297;-81
2023/04/09 03:45:59;;;;;;;22.20;13.73;;;;;;;3.62;100.00;62373.56;4933006;29;20212;-78
2023/04/09 03:48:26;;;;;;;21.08;13.20;;;;;;;3.52;100.00;62364.28;4932098;29;20221;-80
2023/04/09 03:50:53;;;;;;;22.98;14.25;;;;;;;3.68;100.00;62372.69;4923592;29;20492;-78
2023/04/09 03:53:20;;;;;;;18.42;13.07;;;;;;;3.73;100.00;62382.84;4911852;29;20254;-81
2023/04/09 03:55:48;;;;;;;21.80;14.60;;;;;;;3.79;100.00;62386.00;4913359;29;20254;-80
2023/04/09 03:58:15;;;;;;;20.00;14.18;;;;;;;3.81;100.00;62388.59;4911893;29;20229;-82
2023/04/09 04:00:42;;;;;;;19.58;13.25;;;;;;;3.78;100.00;62384.97;4924641;29;20254;-80
2023/04/09 04:03:13;;;;;;;20.23;14.35;;;;;;;3.81;100.00;62393.63;4930257;29;20237;-81
2023/04/09 04:05:40;;;;;;;20.38;14.40;;;;;;;3.90;100.00;62402.84;4929990;29;20201;-79
2023/04/09 04:08:07;;;;;;;21.02;14.52;;;;;;;3.80;100.00;62394.56;4929247;29;20229;-80
2023/04/09 04:10:34;;;;;;;21.08;14.57;;;;;;;3.85;100.00;62395.19;4932302;29;20519;-80
2023/04/09 04:13:01;;;;;;;23.27;15.50;;;;;;;3.89;100.00;62401.31;4931029;29;20229;-79
2023/04/09 04:15:29;;;;;;;22.17;15.02;;;;;;;4.00;100.00;62410.66;4931949;29;20202;-79
2023/04/09 04:17:56;;;;;;;22.77;15.55;;;;;;;4.00;100.00;62412.66;4927824;29;20289;-80
2023/04/09 04:20:25;;;;;;;25.23;17.02;;;;;;;4.06;100.00;62416.81;4927990;29;20281;-79
2023/04/09 04:22:52;;;;;;;22.20;15.60;;;;;;;4.06;100.00;62414.28;4931330;29;20418;-81
2023/04/09 04:25:20;;;;;;;23.67;15.38;;;;;;;4.07;100.00;62414.81;4934770;29;20233;-80
2023/04/09 04:27:47;;;;;;;22.70;16.20;;;;;;;4.11;100.00;62418.91;4918984;29;20230;-80
2023/04/09 04:30:14;;;;;;;22.85;16.85;;;;;;;4.33;100.00;62444.59;4920731;29;20213;-80
2023/04/09 04:32:41;;;;;;;29.27;17.70;;;;;;;4.44;100.00;62460.94;4931068;29;20245;-80
2023/04/09 04:35:09;;;;;;;27.63;18.30;;;;;;;4.52;100.00;62464.13;4922031;29;20268;-80
2023/04/09 04:37:37;;;;;;;23.98;16.70;;;;;;;4.63;100.00;62477.47;4920739;29;20326;-80
2023/04/09 04:40:05;;;;;;;34.22;20.45;;;;;;;4.73;100.00;62482.72;4928803;29;20637;-81
2023/04/09 04:42:32;;;;;;;27.48;18.80;;;;;;;4.81;100.00;62490.97;4933758;29;20554;-80
2023/04/09 04:44:59;;;;;;;34.00;21.85;;;;;;;4.95;100.00;62504.84;4918766;29;20228;-81
2023/04/09 04:47:27;;;;;;;32.10;20.80;;;;;;;5.04;100.00;62519.19;4921833;29;20262;-81
2023/04/09 04:49:54;;;;;;;31.05;19.15;;;;;;;5.14;100.00;62529.47;4931438;29;20511;-80
2023/04/09 04:52:21;;;;;;;27.95;19.85;;;;;;;5.25;100.00;62543.84;4927408;29;20237;-80
2023/04/09 04:54:49;;;;;;;25.55;18.60;;;;;;;5.46;100.00;62555.38;4927164;29;20241;-80
2023/04/09 04:57:17;;;;;;;32.08;20.73;;;;;;;5.58;100.00;62572.78;4931646;29;20324;-80
2023/04/09 04:59:44;;;;;;;26.08;16.92;;;;;;;5.56;100.00;62568.19;4932300;29;20202;-81
2023/04/09 05:02:14;;;;;;;26.63;18.60;;;;;;;5.80;100.00;62599.97;4923698;29;20238;-78
2023/04/09 05:04:41;;;;;;;23.65;17.40;;;;;;;5.85;100.00;62600.63;4919720;29;20202;-80
2023/04/09 05:07:08;;;;;;;31.30;18.17;;;;;;;6.00;100.00;62612.53;4926359;29;20222;-80
2023/04/09 05:09:35;;;;;;;25.88;18.13;;;;;;;6.14;100.00;62632.53;4927837;29;20277;-79
2023/04/09 05:12:04;;;;;;;25.08;17.80;;;;;;;6.42;100.00;62661.38;4930335;29;20418;-80
2023/04/09 05:14:31;;;;;;;37.65;26.90;;;;;;;6.60;100.00;62674.91;4931115;29;20297;-80
2023/04/09 05:16:58;;;;;;;29.13;19.75;;;;;;;6.76;100.00;62693.94;4932509;29;20217;-80
2023/04/09 05:19:27;;;;;;;28.20;18.73;;;;;;;6.97;100.00;62712.53;4932670;29;20210;-81
2023/04/09 05:21:54;;;;;;;29.48;20.15;;;;;;;7.10;100.00;62725.94;4937866;29;20246;-81
2023/04/09 05:24:21;;;;;;;25.67;18.48;;;;;;;7.18;100.00;62738.75;4934569;29;20209;-81
2023/04/09 05:26:48;;;;;;;26.70;17.85;;;;;;;7.31;100.00;62747.09;4934246;29;20221;-80
2023/04/09 05:29:17;;;;;;;22.23;16.13;;;;;;;7.41;100.00;62757.94;4933237;29;20222;-81
2023/04/09 05:31:44;;;;;;;23.25;16.67;;;;;;;7.43;100.00;62759.47;4934775;29;20286;-80
2023/04/09 05:34:11;;;;;;;24.90;16.98;;;;;;;7.50;100.00;62769.75;4936768;29;20226;-80
2023/04/09 05:36:38;;;;;;;23.55;15.43;;;;;;;7.59;100.00;62779.03;4933100;29;20266;-81
2023/04/09 05:39:05;;;;;;;25.20;16.88;;;;;;;7.86;100.00;62803.88;4932864;29;20214;-81
2023/04/09 05:41:32;;;;;;;26.73;17.23;;;;;;;7.85;100.00;62805.38;4933588;29;20194;-79
2023/04/09 05:43:59;;;;;;;24.35;16.13;;;;;;;7.86;100.00;62803.88;4931450;29;20373;-82
2023/04/09 05:46:30;;;;;;;25.35;16.75;;;;;;;7.92;100.00;62813.09;4930543;29;20269;-80
2023/04/09 05:48:56;;;;;;;23.30;16.17;;;;;;;7.90;100.00;62813.56;4931501;29;20211;-81
2023/04/09 05:51:24;;;;;;;24.05;15.32;;;;;;;8.00;100.00;62818.84;4929124;29;20234;-82
2023/04/09 05:53:51;;;;;;;25.17;16.48;;;;;;;7.86;100.00;62803.88;4935128;29;20264;-82
2023/04/09 05:56:18;;;;;;;26.00;17.65;;;;;;;7.85;100.00;62802.84;4934636;29;20202;-81
2023/04/09 05:58:45;;;;;;;24.25;17.27;;;;;;;8.12;100.00;62835.78;4934014;29;20209;-80
2023/04/09 06:01:12;;;;;;;29.83;18.55;;;;;;;8.19;100.00;62840.47;4925572;29;20230;-79
2023/04/09 06:03:41;;;;;;;31.50;16.95;;;;;;;8.32;100.00;62853.91;4932922;29;20213;-80
2023/04/09 06:06:08;;;;;;;33.35;17.90;;;;;;;8.56;100.00;62878.72;4932709;29;20213;-81
2023/04/09 06:08:36;;;;;;;33.72;18.77;;;;;;;8.78;100.00;62898.41;4931450;29;20225;-81
2023/04/09 06:11:04;;;;;;;26.15;18.10;;;;;;;8.90;100.00;62915.88;4929435;29;20217;-81
2023/04/09 06:13:31;;;;;;;20.50;14.27;;;;;;;9.00;100.00;62921.66;4934746;29;20226;-82
2023/04/09 06:15:58;;;;;;;23.70;15.77;;;;;;;8.96;100.00;62920.06;4935432;29;20238;-82
2023/04/09 06:18:26;;;;;;;18.85;14.55;;;;;;;9.17;100.00;62939.22;4925058;29;20222;-81
2023/04/09 06:21:03;;;;;;;19.98;14.68;;;;;;;9.40;100.00;62965.03;4936255;29;20254;-81
2023/04/09 06:23:30;;;;;;;18.83;12.55;;;;;;;9.46;100.00;62975.78;4921583;29;20234;-81
2023/04/09 06:25:58;;;;;;;21.23;14.77;;;;;;;9.61;100.00;62986.22;4930700;29;20205;-81
2023/04/09 06:28:26;;;;;;;18.38;13.25;;;;;;;9.65;100.00;62993.41;4914093;29;20219;-80
2023/04/09 06:30:54;;;;;;;15.82;12.40;;;;;;;9.38;100.00;62965.50;4913427;29;20542;-79
2023/04/09 06:33:21;;;;;;;20.20;14.57;;;;;;;9.18;100.00;62944.81;4927790;29;20233;-80
2023/04/09 06:35:49;;;;;;;18.58;12.75;;;;;;;9.17;100.00;62941.25;4933258;29;20236;-80
2023/04/09 06:38:19;;;;;;;18.08;12.70;;;;;;;9.48;100.00;62972.75;4933561;29;20221;-81
2023/04/09 06:40:47;;;;;;;16.95;12.45;;;;;;;9.75;100.00;63005.78;4933139;29;20217;-79
2023/04/09 06:43:14;;;;;;;21.15;14.63;;;;;;;9.98;100.00;63024.47;4931088;29;20226;-80
2023/04/09 06:45:41;;;;;;;21.50;13.13;;;;;;;9.96;100.00;63022.94;4928286;29;20202;-81
2023/04/09 06:48:08;;;;;;;14.52;10.45;;;;;;;9.41;99.86;62966.03;4931617;29;20226;-81
2023/04/09 06:50:35;;;;;;;14.70;10.77;;;;;;;9.32;100.00;62957.25;4929099;29;20206;-81
2023/04/09 06:53:02;;;;;;;16.88;11.38;;;;;;;9.21;100.00;62947.91;4934626;29;20226;-80
2023/04/09 06:55:31;;;;;;;18.13;10.88;;;;;;;9.04;100.00;62922.72;4932173;29;20598;-81
2023/04/09 06:57:58;;;;;;;14.80;10.80;;;;;;;9.14;100.00;62941.19;4932197;29;20320;-81
2023/04/09 07:00:25;;;;;;;17.70;11.40;;;;;;;9.33;100.00;62962.88;4932098;29;20252;-81
2023/04/09 07:02:54;;;;;;;15.70;11.38;;;;;;;9.46;100.00;62973.25;4932530;29;20282;-82
2023/04/09 07:05:21;;;;;;;12.68;10.02;;;;;;;9.88;100.00;63014.66;4932477;29;20265;-81
2023/04/09 07:07:48;;;;;;;13.00;9.90;;;;;;;10.05;100.00;63034.25;4935195;29;20270;-82
2023/04/09 07:10:15;;;;;;;15.40;10.25;;;;;;;10.05;99.32;63031.72;4933606;29;20230;-81
2023/04/09 07:12:43;;;;;;;11.85;9.70;;;;;;;10.05;99.37;63032.25;4932857;29;20222;-81
2023/04/09 07:15:11;;;;;;;12.35;9.13;;;;;;;9.90;97.30;63019.28;4931915;29;20238;-80
2023/04/09 07:17:38;;;;;;;13.77;9.60;;;;;;;9.64;99.18;62989.31;4931651;29;20258;-81
2023/04/09 07:20:05;;;;;;;10.98;9.20;;;;;;;9.81;100.00;63009.44;4932365;29;20205;-81
2023/04/09 07:22:32;;;;;;;13.95;10.13;;;;;;;10.06;98.40;63035.81;4930629;29;20221;-81
2023/04/09 07:25:00;;;;;;;13.13;9.23;;;;;;;9.96;95.66;63028.00;4927350;29;20562;-84
2023/04/09 07:27:28;;;;;;;9.13;8.18;;;;;;;9.70;95.32;62998.56;4920827;29;20222;-81
2023/04/09 07:29:59;;;;;;;11.50;9.63;;;;;;;9.55;96.68;62980.53;4933085;29;20202;-82
2023/04/09 07:32:26;;;;;;;14.88;10.95;;;;;;;9.67;96.07;62992.94;4931159;29;20256;-81
2023/04/09 07:34:54;;;;;;;15.32;10.77;;;;;;;9.79;96.92;63005.34;4930910;29;20237;-80
2023/04/09 07:37:21;;;;;;;13.18;10.30;;;;;;;9.67;98.36;62992.41;4931451;29;20218;-79
2023/04/09 07:39:50;;;;;;;12.75;9.60;;;;;;;9.68;99.08;62996.50;4930970;29;20243;-78
2023/04/09 07:42:17;;;;;;;14.07;9.65;;;;;;;9.90;100.00;63016.72;4932066;29;20230;-80
2023/04/09 07:44:44;;;;;;;12.95;9.90;;;;;;;10.05;99.30;63037.31;4932743;29;20563;-80
2023/04/09 07:47:13;;;;;;;13.75;10.48;;;;;;;10.20;98.28;63045.22;4931022;29;20349;-81
2023/04/09 07:49:40;;;;;;;12.80;10.25;;;;;;;10.35;96.00;63062.78;4930909;29;20220;-80
2023/04/09 07:52:07;;;;;;;13.13;9.52;;;;;;;10.32;95.23;63059.66;4930446;29;20280;-81
2023/04/09 07:54:35;;;;;;;9.70;8.55;;;;;;;10.11;94.49;63043.03;4931063;29;20237;-82
2023/04/09 07:57:02;;;;;;;12.68;9.27;;;;;;;9.93;96.52;63021.84;4932569;29;20289;-81
2023/04/09 07:59:30;;;;;;;14.65;11.00;;;;;;;9.82;97.99;63008.44;4930835;29;20209;-81
2023/04/09 08:01:57;;;;;;;10.98;9.30;;;;;;;9.91;98.22;63020.28;4932681;29;20229;-80
2023/04/09 08:04:26;;;;;;;12.00;10.65;;;;;;;9.99;98.24;63022.97;4932132;29;20209;-80
2023/04/09 08:06:54;;;;;;;12.35;9.50;;;;;;;10.12;95.62;63041.53;4930232;29;20218;-79
2023/04/09 08:09:21;;;;;;;11.82;9.82;;;;;;;9.95;97.13;63023.91;4930348;29;20277;-80
2023/04/09 08:11:49;;;;;;;10.15;9.05;;;;;;;9.96;97.88;63030.03;4931750;29;20435;-81
2023/04/09 08:14:17;;;;;;;12.95;9.82;;;;;;;10.16;97.14;63041.09;4931563;29;20499;-81
2023/04/09 08:16:46;;;;;;;11.25;9.98;;;;;;;10.52;95.10;63082.41;4926347;29;20234;-80
2023/04/09 08:19:13;;;;;;;11.00;9.73;;;;;;;10.94;93.80;63126.38;4930747;29;20209;-80
2023/04/09 08:21:42;;;;;;;11.85;10.05;;;;;;;11.04;89.04;63144.41;4929912;29;20233;-81
2023/04/09 08:24:10;;;;;;;11.23;8.85;;;;;;;11.11;89.27;63140.94;4912572;29;20214;-81
2023/04/09 08:26:37;;;;;;;10.68;8.50;;;;;;;10.61;92.23;63087.16;4924841;29;20230;-80
2023/04/09 08:29:04;;;;;;;11.43;8.20;;;;;;;10.63;89.45;63091.75;4932291;29;20198;-80
2023/04/09 08:31:32;;;;;;;9.73;8.68;;;;;;;10.58;92.11;63089.13;4930307;29;20269;-80
2023/04/09 08:33:59;;;;;;;10.32;8.93;;;;;;;10.67;90.65;63097.91;4931916;29;20262;-80
2023/04/09 08:36:26;;;;;;;10.30;9.05;;;;;;;11.07;89.42;63134.75;4920840;29;20290;-81
2023/04/09 08:38:55;;;;;;;15.35;11.27;;;;;;;10.62;89.38;63090.19;4929739;29;20210;-80
2023/04/09 08:41:24;;;;;;;16.63;12.10;;;;;;;10.38;93.00;63070.97;4931605;29;20417;-80
2023/04/09 08:43:51;;;;;;;16.05;11.23;;;;;;;10.02;94.32;63028.63;4933556;29;20209;-80
2023/04/09 08:46:20;;;;;;;14.50;10.88;;;;;;;9.98;96.33;63027.53;4929621;29;20210;-81
2023/04/09 08:48:48;;;;;;;14.18;10.85;;;;;;;10.20;93.78;63049.78;4931502;29;20234;-81
2023/04/09 08:51:16;;;;;;;17.00;11.43;;;;;;;9.96;94.11;63025.47;4930610;29;20202;-80
2023/04/09 08:53:46;;;;;;;17.90;11.65;;;;;;;9.83;97.97;63017.13;4918648;29;20282;-80
2023/04/09 08:56:15;;;;;;;14.80;10.60;;;;;;;10.04;97.07;63028.16;4916123;29;20606;-81
2023/04/09 08:58:44;;;;;;;15.98;11.23;;;;;;;10.07;95.44;63036.34;4916068;29;20226;-80
2023/04/09 09:01:22;;;;;;;14.30;10.82;;;;;;;9.97;96.03;63026.50;4914598;29;20222;-80
2023/04/09 09:03:59;;;;;;;15.40;11.63;;;;;;;9.80;97.37;63008.41;4920670;29;20221;-79
2023/04/09 09:06:28;;;;;;;12.18;10.13;;;;;;;9.64;97.67;62991.84;4933368;29;20213;-79
2023/04/09 09:09:06;;;;;;;13.90;10.73;;;;;;;10.02;97.73;63031.16;4934833;29;20205;-81
2023/04/09 09:11:36;;;;;;;13.15;10.05;;;;;;;10.17;97.04;63046.69;4934033;29;20204;-81
2023/04/09 09:14:06;;;;;;;15.27;10.50;;;;;;;10.30;94.33;63060.66;4922548;29;20238;-82
2023/04/09 09:16:38;;;;;;;12.50;10.05;;;;;;;10.19;91.65;63054.38;4919495;29;20225;-79
2023/04/09 09:19:07;;;;;;;12.85;10.13;;;;;;;10.29;93.35;63059.09;4919084;29;20203;-80
2023/04/09 09:21:35;;;;;;;17.63;9.52;;;;;;;10.28;92.99;63055.53;4921746;29;20218;-81
2023/04/09 09:24:02;;;;;;;13.15;10.23;;;;;;;10.25;92.91;63058.03;4936187;29;20230;-80
2023/04/09 09:26:30;;;;;;;12.05;8.85;;;;;;;10.12;94.21;63042.03;4934432;29;20223;-80
2023/04/09 09:29:04;;;;;;;11.55;9.18;;;;;;;10.29;94.34;63056.56;4930206;29;20203;-81
2023/04/09 09:31:46;;;;;;;11.15;9.65;;;;;;;10.24;94.94;63053.94;4924689;29;20210;-81
2023/04/09 09:34:13;;;;;;;11.77;9.20;;;;;;;10.45;93.57;63076.19;4935141;29;20213;-81
2023/04/09 09:36:40;;;;;;;14.13;10.35;;;;;;;10.72;94.99;63101.06;4932929;29;20269;-80
2023/04/09 09:39:09;;;;;;;10.55;9.35;;;;;;;10.76;90.09;63105.22;4923492;29;20223;-79
2023/04/09 09:41:36;;;;;;;13.00;10.25;;;;;;;10.93;89.26;63122.28;4933812;29;20230;-80
2023/04/09 09:44:06;;;;;;;10.73;8.93;;;;;;;11.29;87.38;63162.13;4934851;29;20236;-80
2023/04/09 09:46:37;;;;;;;12.45;9.40;;;;;;;11.36;87.53;63166.81;4934259;29;20297;-79
2023/04/09 09:49:04;;;;;;;10.57;8.88;;;;;;;11.43;86.83;63174.59;4922350;29;20208;-80
2023/04/09 09:51:33;;;;;;;13.77;9.98;;;;;;;11.73;84.92;63207.72;4934769;29;20209;-82
2023/04/09 09:54:00;;;;;;;14.68;9.82;;;;;;;11.95;83.42;63232.53;4934951;29;20206;-82
2023/04/09 09:56:32;;;;;;;11.60;8.95;;;;;;;12.00;79.37;63235.69;4927234;29;20262;-80
2023/04/09 09:59:13;;;;;;;11.55;8.73;;;;;;;11.59;80.26;63193.72;4930859;29;20209;-79
2023/04/09 10:01:41;;;;;;;8.77;7.95;;;;;;;11.60;83.80;63194.22;4927984;29;20225;-80
2023/04/09 10:04:12;;;;;;;11.82;8.52;;;;;;;11.75;80.27;63212.34;4933967;29;20202;-81
2023/04/09 10:06:43;;;;;;;9.63;8.52;;;;;;;11.79;81.12;63216.47;4934174;29;20241;-80
2023/04/09 10:09:10;;;;;;;9.55;8.10;;;;;;;11.87;79.88;63219.16;4933850;29;20567;-81
2023/04/09 10:11:41;;;;;;;9.40;7.85;;;;;;;12.12;80.78;63250.69;4914857;29;20251;-80
2023/04/09 10:14:10;;;;;;;8.63;7.82;;;;;;;12.25;75.90;63256.00;4921209;29;20198;-81
2023/04/09 10:16:37;;;;;;;9.23;8.18;;;;;;;12.51;75.68;63282.94;4923119;29;20289;-80
2023/04/09 10:19:05;;;;;;;8.40;7.65;;;;;;;12.69;69.34;63307.22;4916282;29;20214;-81
2023/04/09 10:21:39;;;;;;;8.65;7.75;;;;;;;13.05;69.87;63348.66;4915476;29;20555;-80
2023/04/09 10:24:06;;;;;;;9.10;7.38;;;;;;;12.90;71.61;63325.94;4914986;29;20202;-81
2023/04/09 10:26:35;;;;;;;7.57;6.80;;;;;;;12.80;67.13;63321.19;4933718;29;20265;-80
2023/04/09 10:29:10;;;;;;;8.38;7.55;;;;;;;13.10;65.56;63343.63;4934591;29;20206;-80
2023/04/09 10:31:52;;;;;;;8.32;7.50;;;;;;;13.33;61.91;63370.56;4934222;29;20221;-79
2023/04/09 10:34:22;;;;;;;8.30;7.45;;;;;;;13.08;64.03;63346.66;4934884;29;20213;-81
2023/04/09 10:36:55;;;;;;;7.30;6.70;;;;;;;12.95;66.71;63330.59;4933224;29;20238;-80
2023/04/09 10:39:28;;;;;;;7.00;6.18;;;;;;;12.65;59.72;63297.44;4934287;29;20253;-79
2023/04/09 10:41:56;;;;;;;7.38;6.78;;;;;;;12.56;64.08;63295.78;4934307;29;20258;-80
2023/04/09 10:44:25;;;;;;;7.03;6.35;;;;;;;12.59;62.21;63296.34;4921601;29;20218;-82
2023/04/09 10:46:55;;;;;;;7.90;7.13;;;;;;;12.65;61.66;63294.88;4914339;29;20227;-81
2023/04/09 10:49:24;;;;;;;7.40;6.70;;;;;;;13.01;61.75;63339.88;4916710;29;20203;-80
2023/04/09 10:51:52;;;;;;;6.97;6.38;;;;;;;13.02;59.44;63340.94;4918239;29;20463;-81
2023/04/09 10:54:48;;;;;;;8.05;6.30;;;;;;;12.80;59.39;63323.22;4933886;29;20198;-81
2023/04/09 10:57:18;;;;;;;5.65;5.15;;;;;;;13.10;58.50;63349.25;4933894;29;20293;-80
2023/04/09 10:59:46;;;;;;;7.43;6.75;;;;;;;12.58;57.93;63297.88;4936178;29;20208;-80
2023/04/09 11:02:55;;;;;;;10.75;7.28;;;;;;;12.56;61.18;63293.22;4918682;29;20272;-80
2023/04/09 11:05:29;;;;;;;6.53;5.93;;;;;;;12.70;60.70;63308.25;4884045;29;20207;-81
2023/04/09 11:08:04;;;;;;;6.88;6.18;;;;;;;12.75;57.75;63312.94;4913056;29;20439;-81
2023/04/09 11:10:31;;;;;;;7.97;6.43;;;;;;;12.79;57.62;63311.97;4921323;29;20202;-81
2023/04/09 11:12:58;;;;;;;6.15;5.70;;;;;;;13.10;57.73;63344.13;4934061;29;20290;-79
2023/04/09 11:15:25;;;;;;;6.57;6.07;;;;;;;12.71;57.37;63309.31;4939445;28;20190;-80
2023/04/09 11:17:53;;;;;;;7.22;6.47;;;;;;;12.43;58.36;63274.63;4933607;29;20373;-80
2023/04/09 11:20:21;;;;;;;6.75;6.15;;;;;;;12.27;60.40;63260.63;4928326;29;20206;-79
2023/04/09 11:22:51;;;;;;;6.55;5.90;;;;;;;12.22;60.67;63257.97;4932554;29;20326;-80
2023/04/09 11:25:20;;;;;;;9.25;5.93;;;;;;;12.16;63.75;63252.28;4932114;29;20415;-81
2023/04/09 11:27:46;;;;;;;8.25;7.47;;;;;;;12.03;64.09;63233.19;4931448;29;20422;-80